createdAt,value
2016-06-08T00:00:45.199Z,0
2016-06-08T00:01:45.187Z,0
2016-06-08T00:02:45.173Z,0
2016-06-08T00:03:45.144Z,0
2016-06-08T00:04:45.100Z,0
2016-06-08T00:05:45.088Z,0
2016-06-08T00:06:45.075Z,0
2016-06-08T00:07:45.046Z,0
2016-06-08T00:08:45.033Z,0
2016-06-08T00:09:45.020Z,0
2016-06-08T00:10:45.007Z,0
2016-06-08T00:11:45.416Z,0
2016-06-08T00:12:44.949Z,0
2016-06-08T00:13:44.937Z,0
2016-06-08T00:14:44.893Z,0
2016-06-08T00:15:44.896Z,0
2016-06-08T00:16:44.852Z,0
2016-06-08T00:17:44.838Z,0
2016-06-08T00:18:44.841Z,0
2016-06-08T00:19:44.812Z,0
2016-06-08T00:20:44.784Z,0
2016-06-08T00:21:44.756Z,0
2016-06-08T00:22:44.743Z,0
2016-06-08T00:23:44.729Z,0
2016-06-08T00:24:44.700Z,0
2016-06-08T00:25:44.688Z,0
2016-06-08T00:26:45.190Z,0
2016-06-08T00:27:44.631Z,0
2016-06-08T00:28:44.633Z,0
2016-06-08T00:29:44.605Z,0
2016-06-08T00:30:44.592Z,0
2016-06-08T00:31:44.564Z,0
2016-06-08T00:32:44.551Z,0
2016-06-08T00:33:44.522Z,0
2016-06-08T00:34:44.494Z,0
2016-06-08T00:35:44.496Z,0
2016-06-08T00:36:44.327Z,0
2016-06-08T00:37:44.439Z,0
2016-06-08T00:38:44.441Z,0
2016-06-08T00:39:44.398Z,0
2016-06-08T00:40:44.385Z,0
2016-06-08T00:41:45.810Z,0
2016-06-08T00:42:44.344Z,0
2016-06-08T00:43:44.330Z,0
2016-06-08T00:44:44.286Z,0
2016-06-08T00:45:44.288Z,0
2016-06-08T00:46:44.104Z,0
2016-06-08T00:47:44.247Z,0
2016-06-08T00:48:44.204Z,0
2016-06-08T00:49:44.206Z,0
2016-06-08T00:50:44.177Z,0
2016-06-08T00:51:44.148Z,0
2016-06-08T00:52:44.135Z,0
2016-06-08T00:53:44.107Z,0
2016-06-08T00:54:44.109Z,0
2016-06-08T00:55:44.066Z,0
2016-06-08T00:56:44.521Z,0
2016-06-08T00:57:44.040Z,0
2016-06-08T00:58:44.012Z,0
2016-06-08T00:59:43.998Z,0
2016-06-08T01:00:43.970Z,0
2016-06-08T01:01:43.972Z,0
2016-06-08T01:02:43.959Z,0
2016-06-08T01:03:43.915Z,0
2016-06-08T01:04:43.903Z,0
2016-06-08T01:05:43.874Z,0
2016-06-08T01:06:43.845Z,0
2016-06-08T01:07:43.816Z,0
2016-06-08T01:08:43.803Z,0
2016-06-08T01:09:43.494Z,0
2016-06-08T01:10:43.465Z,0
2016-06-08T01:11:43.766Z,0
2016-06-08T01:12:43.721Z,0
2016-06-08T01:13:43.708Z,0
2016-06-08T01:14:43.680Z,0
2016-06-08T01:15:43.666Z,0
2016-06-08T01:16:43.513Z,0
2016-06-08T01:17:43.640Z,0
2016-06-08T01:18:43.596Z,0
2016-06-08T01:19:43.583Z,0
2016-06-08T01:20:43.555Z,0
2016-06-08T01:21:43.401Z,0
2016-06-08T01:22:43.513Z,0
2016-06-08T01:23:43.344Z,0
2016-06-08T01:24:43.471Z,0
2016-06-08T01:25:43.474Z,0
2016-06-08T01:26:43.289Z,0
2016-06-08T01:27:43.434Z,0
2016-06-08T01:28:43.404Z,0
2016-06-08T01:29:43.220Z,0
2016-06-08T01:30:43.363Z,0
2016-06-08T01:31:43.350Z,0
2016-06-08T01:32:43.322Z,0
2016-06-08T01:33:43.308Z,0
2016-06-08T01:34:43.280Z,0
2016-06-08T01:35:43.251Z,0
2016-06-08T01:36:43.270Z,0
2016-06-08T01:37:43.225Z,0
2016-06-08T01:38:43.213Z,0
2016-06-08T01:39:43.183Z,0
2016-06-08T01:40:43.155Z,0
2016-06-08T01:41:43.705Z,0
2016-06-08T01:42:43.613Z,0
2016-06-08T01:43:43.102Z,0
2016-06-08T01:44:43.088Z,0
2016-06-08T01:45:43.060Z,0
2016-06-08T01:46:43.031Z,0
2016-06-08T01:47:43.018Z,0
2016-06-08T01:48:42.990Z,0
2016-06-08T01:49:42.992Z,0
2016-06-08T01:50:42.963Z,0
2016-06-08T01:51:42.935Z,0
2016-06-08T01:52:42.766Z,0
2016-06-08T01:53:42.909Z,0
2016-06-08T01:54:42.865Z,0
2016-06-08T01:55:42.851Z,0
2016-06-08T01:56:43.964Z,0
2016-06-08T01:57:42.810Z,0
2016-06-08T01:58:42.782Z,0
2016-06-08T01:59:42.770Z,0
2016-06-08T02:00:42.584Z,0
2016-06-08T02:01:42.728Z,0
2016-06-08T02:02:42.699Z,0
2016-06-08T02:03:42.701Z,0
2016-06-08T02:04:42.658Z,0
2016-06-08T02:05:42.628Z,0
2016-06-08T02:06:42.631Z,0
2016-06-08T02:07:42.462Z,0
2016-06-08T02:08:42.590Z,0
2016-06-08T02:09:42.561Z,0
2016-06-08T02:10:42.549Z,0
2016-06-08T02:11:42.379Z,0
2016-06-08T02:12:43.305Z,0
2016-06-08T02:13:42.478Z,0
2016-06-08T02:14:42.466Z,0
2016-06-08T02:15:42.438Z,0
2016-06-08T02:16:42.268Z,0
2016-06-08T02:17:42.396Z,0
2016-06-08T02:18:42.367Z,0
2016-06-08T02:19:42.369Z,0
2016-06-08T02:20:42.341Z,0
2016-06-08T02:21:42.156Z,0
2016-06-08T02:22:42.299Z,0
2016-06-08T02:23:42.287Z,0
2016-06-08T02:24:42.243Z,0
2016-06-08T02:25:42.229Z,0
2016-06-08T02:26:42.701Z,0
2016-06-08T02:27:42.359Z,0
2016-06-08T02:28:42.159Z,0
2016-06-08T02:29:42.131Z,0
2016-06-08T02:30:42.117Z,0
2016-06-08T02:31:42.090Z,0
2016-06-08T02:32:42.076Z,0
2016-06-08T02:33:42.048Z,0
2016-06-08T02:34:42.035Z,0
2016-06-08T02:35:42.006Z,0
2016-06-08T02:36:41.853Z,0
2016-06-08T02:37:41.981Z,0
2016-06-08T02:38:41.952Z,0
2016-06-08T02:39:41.939Z,0
2016-06-08T02:40:41.926Z,0
2016-06-08T02:41:42.522Z,0
2016-06-08T02:42:43.150Z,0
2016-06-08T02:43:41.855Z,0
2016-06-08T02:44:41.827Z,0
2016-06-08T02:45:41.815Z,0
2016-06-08T02:46:41.645Z,0
2016-06-08T02:47:41.774Z,0
2016-06-08T02:48:41.729Z,0
2016-06-08T02:49:41.591Z,0
2016-06-08T02:50:41.703Z,0
2016-06-08T02:51:41.518Z,0
2016-06-08T02:52:41.662Z,0
2016-06-08T02:53:41.633Z,0
2016-06-08T02:54:41.604Z,0
2016-06-08T02:55:41.607Z,5
2016-06-08T02:56:42.126Z,5
2016-06-08T02:57:41.721Z,5
2016-06-08T02:58:41.537Z,5
2016-06-08T02:59:41.351Z,5
2016-06-08T03:00:41.511Z,5
2016-06-08T03:01:41.468Z,5
2016-06-08T03:02:41.438Z,5
2016-06-08T03:03:41.426Z,5
2016-06-08T03:04:41.397Z,5
2016-06-08T03:05:41.384Z,10
2016-06-08T03:06:41.371Z,10
2016-06-08T03:07:41.342Z,10
2016-06-08T03:08:41.345Z,10
2016-06-08T03:09:41.301Z,10
2016-06-08T03:10:41.288Z,10
2016-06-08T03:11:41.275Z,10
2016-06-08T03:12:41.247Z,10
2016-06-08T03:13:41.233Z,15
2016-06-08T03:14:41.205Z,15
2016-06-08T03:15:41.176Z,15
2016-06-08T03:16:40.991Z,15
2016-06-08T03:17:41.120Z,15
2016-06-08T03:18:41.107Z,15
2016-06-08T03:19:41.094Z,20
2016-06-08T03:20:41.065Z,20
2016-06-08T03:21:41.052Z,20
2016-06-08T03:22:41.023Z,20
2016-06-08T03:23:41.010Z,20
2016-06-08T03:24:40.998Z,25
2016-06-08T03:25:40.969Z,25
2016-06-08T03:26:41.394Z,25
2016-06-08T03:27:41.974Z,30
2016-06-08T03:28:40.915Z,30
2016-06-08T03:29:40.886Z,30
2016-06-08T03:30:40.873Z,35
2016-06-08T03:31:40.859Z,35
2016-06-08T03:32:40.815Z,35
2016-06-08T03:33:40.788Z,40
2016-06-08T03:34:40.775Z,40
2016-06-08T03:35:40.746Z,40
2016-06-08T03:36:40.733Z,40
2016-06-08T03:37:40.704Z,45
2016-06-08T03:38:40.692Z,45
2016-06-08T03:39:40.678Z,50
2016-06-08T03:40:40.650Z,50
2016-06-08T03:41:40.637Z,55
2016-06-08T03:42:41.593Z,55
2016-06-08T03:43:40.580Z,55
2016-06-08T03:44:40.567Z,60
2016-06-08T03:45:40.539Z,60
2016-06-08T03:46:40.510Z,65
2016-06-08T03:47:40.496Z,70
2016-06-08T03:48:40.469Z,70
2016-06-08T03:49:40.299Z,75
2016-06-08T03:50:40.443Z,75
2016-06-08T03:51:40.413Z,85
2016-06-08T03:52:40.401Z,80
2016-06-08T03:53:40.372Z,80
2016-06-08T03:54:40.344Z,85
2016-06-08T03:55:40.315Z,85
2016-06-08T03:56:40.318Z,85
2016-06-08T03:57:39.992Z,90
2016-06-08T03:58:40.121Z,90
2016-06-08T03:59:40.233Z,95
2016-06-08T04:00:40.220Z,95
2016-06-08T04:01:40.206Z,100
2016-06-08T04:02:40.193Z,100
2016-06-08T04:03:40.165Z,105
2016-06-08T04:04:40.136Z,110
2016-06-08T04:05:40.123Z,110
2016-06-08T04:06:40.111Z,110
2016-06-08T04:07:40.082Z,110
2016-06-08T04:08:40.053Z,115
2016-06-08T04:09:40.040Z,115
2016-06-08T04:10:40.012Z,120
2016-06-08T04:11:39.999Z,120
2016-06-08T04:12:40.658Z,125
2016-06-08T04:13:39.972Z,125
2016-06-08T04:14:39.945Z,130
2016-06-08T04:15:39.761Z,130
2016-06-08T04:16:39.888Z,130
2016-06-08T04:17:39.874Z,135
2016-06-08T04:18:39.846Z,135
2016-06-08T04:19:39.833Z,140
2016-06-08T04:20:39.819Z,140
2016-06-08T04:21:39.791Z,145
2016-06-08T04:22:39.779Z,145
2016-06-08T04:23:39.750Z,150
2016-06-08T04:24:39.721Z,150
2016-06-08T04:25:39.708Z,155
2016-06-08T04:26:39.696Z,155
2016-06-08T04:27:39.245Z,155
2016-06-08T04:28:39.670Z,155
2016-06-08T04:29:39.640Z,155
2016-06-08T04:30:39.629Z,160
2016-06-08T04:31:39.600Z,160
2016-06-08T04:32:39.571Z,160
2016-06-08T04:33:39.559Z,165
2016-06-08T04:34:39.373Z,165
2016-06-08T04:35:39.517Z,170
2016-06-08T04:36:39.487Z,170
2016-06-08T04:37:39.475Z,175
2016-06-08T04:38:39.447Z,180
2016-06-08T04:39:39.434Z,180
2016-06-08T04:40:39.405Z,185
2016-06-08T04:41:39.408Z,185
2016-06-08T04:42:39.770Z,190
2016-06-08T04:43:39.350Z,195
2016-06-08T04:44:39.197Z,195
2016-06-08T04:45:39.324Z,200
2016-06-08T04:46:39.281Z,200
2016-06-08T04:47:39.284Z,205
2016-06-08T04:48:39.270Z,205
2016-06-08T04:49:39.226Z,210
2016-06-08T04:50:39.213Z,205
2016-06-08T04:51:39.200Z,220
2016-06-08T04:52:39.171Z,225
2016-06-08T04:53:39.144Z,230
2016-06-08T04:54:39.130Z,235
2016-06-08T04:55:39.118Z,250
2016-06-08T04:56:39.088Z,300
2016-06-08T04:57:39.529Z,370
2016-06-08T04:58:39.907Z,410
2016-06-08T04:59:39.049Z,420
2016-06-08T05:00:39.006Z,420
2016-06-08T05:01:39.023Z,425
2016-06-08T05:02:38.995Z,360
2016-06-08T05:03:38.968Z,350
2016-06-08T05:04:38.938Z,380
2016-06-08T05:05:38.910Z,375
2016-06-08T05:06:38.900Z,340
2016-06-08T05:07:38.897Z,320
2016-06-08T05:08:38.880Z,300
2016-06-08T05:09:38.892Z,280
2016-06-08T05:10:38.765Z,285
2016-06-08T05:11:38.853Z,280
2016-06-08T05:12:39.579Z,285
2016-06-08T05:13:38.694Z,310
2016-06-08T05:14:38.826Z,310
2016-06-08T05:15:38.801Z,295
2016-06-08T05:16:38.791Z,325
2016-06-08T05:17:38.780Z,370
2016-06-08T05:18:38.753Z,365
2016-06-08T05:19:38.725Z,360
2016-06-08T05:20:38.714Z,380
2016-06-08T05:21:38.718Z,390
2016-06-08T05:22:38.688Z,375
2016-06-08T05:23:38.661Z,325
2016-06-08T05:24:38.649Z,305
2016-06-08T05:25:38.636Z,295
2016-06-08T05:26:38.311Z,295
2016-06-08T05:27:39.267Z,295
2016-06-08T05:28:38.598Z,295
2016-06-08T05:29:38.570Z,300
2016-06-08T05:30:38.542Z,305
2016-06-08T05:31:38.529Z,310
2016-06-08T05:32:38.532Z,315
2016-06-08T05:33:38.488Z,320
2016-06-08T05:34:38.490Z,325
2016-06-08T05:35:38.446Z,325
2016-06-08T05:36:38.433Z,330
2016-06-08T05:37:38.421Z,335
2016-06-08T05:38:38.407Z,340
2016-06-08T05:39:38.378Z,355
2016-06-08T05:40:38.366Z,350
2016-06-08T05:41:38.353Z,360
2016-06-08T05:42:40.278Z,365
2016-06-08T05:43:38.186Z,370
2016-06-08T05:44:38.283Z,380
2016-06-08T05:45:38.270Z,385
2016-06-08T05:46:38.257Z,400
2016-06-08T05:47:38.088Z,405
2016-06-08T05:48:38.216Z,440
2016-06-08T05:49:38.734Z,490
2016-06-08T05:50:38.205Z,540
2016-06-08T05:51:38.177Z,590
2016-06-08T05:52:37.992Z,625
2016-06-08T05:53:38.135Z,645
2016-06-08T05:54:37.966Z,660
2016-06-08T05:55:37.952Z,665
2016-06-08T05:56:38.097Z,660
2016-06-08T05:57:37.958Z,640
2016-06-08T05:58:38.399Z,595
2016-06-08T05:59:38.041Z,620
2016-06-08T06:00:38.029Z,670
2016-06-08T06:01:38.001Z,705
2016-06-08T06:02:37.987Z,700
2016-06-08T06:03:37.974Z,725
2016-06-08T06:04:37.945Z,740
2016-06-08T06:05:37.949Z,725
2016-06-08T06:06:37.765Z,740
2016-06-08T06:07:37.892Z,700
2016-06-08T06:08:37.737Z,720
2016-06-08T06:09:37.865Z,700
2016-06-08T06:10:37.853Z,700
2016-06-08T06:11:37.855Z,685
2016-06-08T06:12:38.030Z,685
2016-06-08T06:13:37.829Z,690
2016-06-08T06:14:37.801Z,700
2016-06-08T06:15:37.804Z,700
2016-06-08T06:16:37.634Z,750
2016-06-08T06:17:37.590Z,730
2016-06-08T06:18:37.733Z,740
2016-06-08T06:19:37.720Z,745
2016-06-08T06:20:37.567Z,715
2016-06-08T06:21:37.694Z,690
2016-06-08T06:22:37.697Z,695
2016-06-08T06:23:37.513Z,640
2016-06-08T06:24:37.656Z,715
2016-06-08T06:25:37.643Z,685
2016-06-08T06:26:37.614Z,605
2016-06-08T06:27:37.617Z,630
2016-06-08T06:28:37.619Z,650
2016-06-08T06:29:37.607Z,705
2016-06-08T06:30:37.562Z,685
2016-06-08T06:31:37.565Z,650
2016-06-08T06:32:37.553Z,655
2016-06-08T06:33:37.383Z,665
2016-06-08T06:34:37.557Z,680
2016-06-08T06:35:37.358Z,690
2016-06-08T06:36:37.485Z,690
2016-06-08T06:37:37.473Z,665
2016-06-08T06:38:37.459Z,675
2016-06-08T06:39:37.478Z,680
2016-06-08T06:40:37.449Z,665
2016-06-08T06:41:37.404Z,690
2016-06-08T06:42:37.392Z,615
2016-06-08T06:43:37.754Z,620
2016-06-08T06:44:37.367Z,650
2016-06-08T06:45:37.384Z,695
2016-06-08T06:46:37.372Z,740
2016-06-08T06:47:37.343Z,815
2016-06-08T06:48:37.345Z,930
2016-06-08T06:49:37.145Z,920
2016-06-08T06:50:37.303Z,1045
2016-06-08T06:51:37.291Z,1045
2016-06-08T06:52:37.294Z,820
2016-06-08T06:53:37.266Z,825
2016-06-08T06:54:37.237Z,935
2016-06-08T06:55:37.239Z,1110
2016-06-08T06:56:37.211Z,1100
2016-06-08T06:57:37.213Z,975
2016-06-08T06:58:38.622Z,850
2016-06-08T06:59:37.203Z,885
2016-06-08T07:00:37.174Z,1015
2016-06-08T07:01:37.146Z,1310
2016-06-08T07:02:37.149Z,1235
2016-06-08T07:03:37.136Z,1105
2016-06-08T07:04:37.124Z,885
2016-06-08T07:05:37.093Z,770
2016-06-08T07:06:37.097Z,830
2016-06-08T07:07:36.960Z,710
2016-06-08T07:08:37.071Z,710
2016-06-08T07:09:37.090Z,700
2016-06-08T07:10:37.061Z,760
2016-06-08T07:11:37.048Z,800
2016-06-08T07:12:37.035Z,810
2016-06-08T07:13:36.881Z,875
2016-06-08T07:14:36.853Z,850
2016-06-08T07:15:37.027Z,765
2016-06-08T07:16:36.998Z,805
2016-06-08T07:17:36.971Z,775
2016-06-08T07:18:36.958Z,825
2016-06-08T07:19:36.945Z,880
2016-06-08T07:20:36.935Z,925
2016-06-08T07:21:36.940Z,945
2016-06-08T07:22:36.922Z,1130
2016-06-08T07:23:36.895Z,1110
2016-06-08T07:24:36.873Z,925
2016-06-08T07:25:36.891Z,870
2016-06-08T07:26:36.878Z,835
2016-06-08T07:27:36.709Z,885
2016-06-08T07:28:37.556Z,820
2016-06-08T07:29:36.855Z,840
2016-06-08T07:30:36.826Z,925
2016-06-08T07:31:36.813Z,955
2016-06-08T07:32:36.816Z,900
2016-06-08T07:33:36.788Z,905
2016-06-08T07:34:36.806Z,890
2016-06-08T07:35:36.783Z,865
2016-06-08T07:36:36.755Z,995
2016-06-08T07:37:36.601Z,1050
2016-06-08T07:38:36.729Z,1045
2016-06-08T07:39:36.731Z,1125
2016-06-08T07:40:36.734Z,1115
2016-06-08T07:41:36.727Z,1165
2016-06-08T07:42:36.541Z,1210
2016-06-08T07:43:36.544Z,1205
2016-06-08T07:44:36.531Z,1250
2016-06-08T07:45:36.518Z,1240
2016-06-08T07:46:36.661Z,1270
2016-06-08T07:47:36.648Z,1355
2016-06-08T07:48:36.479Z,1425
2016-06-08T07:49:36.623Z,1410
2016-06-08T07:50:36.610Z,1410
2016-06-08T07:51:36.466Z,1445
2016-06-08T07:52:36.594Z,1400
2016-06-08T07:53:36.613Z,1335
2016-06-08T07:54:37.037Z,1290
2016-06-08T07:55:36.571Z,1190
2016-06-08T07:56:36.264Z,1160
2016-06-08T07:57:36.562Z,1195
2016-06-08T07:58:36.409Z,1165
2016-06-08T07:59:36.537Z,1190
2016-06-08T08:00:36.524Z,1180
2016-06-08T08:01:36.527Z,1220
2016-06-08T08:02:36.498Z,1215
2016-06-08T08:03:36.517Z,1245
2016-06-08T08:04:36.503Z,1315
2016-06-08T08:05:36.475Z,1410
2016-06-08T08:06:36.509Z,1475
2016-06-08T08:07:36.497Z,1340
2016-06-08T08:08:36.468Z,1450
2016-06-08T08:09:36.455Z,1510
2016-06-08T08:10:36.458Z,1465
2016-06-08T08:11:36.463Z,1730
2016-06-08T08:12:36.435Z,1770
2016-06-08T08:13:37.453Z,1715
2016-06-08T08:14:36.650Z,1670
2016-06-08T08:15:36.247Z,1685
2016-06-08T08:16:36.405Z,1670
2016-06-08T08:17:36.393Z,1530
2016-06-08T08:18:36.427Z,1455
2016-06-08T08:19:36.383Z,1445
2016-06-08T08:20:36.401Z,1500
2016-06-08T08:21:36.935Z,1330
2016-06-08T08:22:36.375Z,1190
2016-06-08T08:23:36.379Z,935
2016-06-08T08:24:36.382Z,1020
2016-06-08T08:25:36.351Z,1140
2016-06-08T08:26:36.355Z,1145
2016-06-08T08:27:36.185Z,1060
2016-06-08T08:28:37.079Z,985
2016-06-08T08:29:36.754Z,925
2016-06-08T08:30:42.131Z,1045
2016-06-08T08:31:37.400Z,1050
2016-06-08T08:32:43.370Z,1275
2016-06-08T08:33:43.467Z,1185
2016-06-08T08:34:40.095Z,1470
2016-06-08T08:35:42.097Z,1580
2016-06-08T08:36:42.694Z,1570
2016-06-08T08:37:43.009Z,1545
2016-06-08T08:38:40.184Z,1415
2016-06-08T08:39:41.765Z,1380
2016-06-08T08:40:42.424Z,1470
2016-06-08T08:41:43.036Z,1505
2016-06-08T08:42:41.461Z,1325
2016-06-08T08:43:36.917Z,1140
2016-06-08T08:44:36.200Z,1050
2016-06-08T08:45:36.219Z,1045
2016-06-08T08:46:36.205Z,1105
2016-06-08T08:47:36.208Z,1030
2016-06-08T08:48:40.648Z,920
2016-06-08T08:49:43.307Z,750
2016-06-08T08:50:42.294Z,770
2016-06-08T08:51:42.796Z,815
2016-06-08T08:52:42.377Z,980
2016-06-08T08:53:36.146Z,1220
2016-06-08T08:54:35.992Z,1270
2016-06-08T08:55:36.151Z,1175
2016-06-08T08:56:36.138Z,1210
2016-06-08T08:57:36.141Z,1340
2016-06-08T08:58:36.894Z,1340
2016-06-08T08:59:36.132Z,1220
2016-06-08T09:00:36.102Z,1240
2016-06-08T09:01:36.106Z,875
2016-06-08T09:02:36.093Z,670
2016-06-08T09:03:36.064Z,640
2016-06-08T09:04:36.082Z,625
2016-06-08T09:05:36.053Z,615
2016-06-08T09:06:36.040Z,620
2016-06-08T09:07:35.887Z,605
2016-06-08T09:08:36.030Z,590
2016-06-08T09:09:36.033Z,600
2016-06-08T09:10:36.005Z,600
2016-06-08T09:11:36.225Z,600
2016-06-08T09:12:35.994Z,585
2016-06-08T09:13:37.356Z,575
2016-06-08T09:14:36.391Z,560
2016-06-08T09:15:36.002Z,550
2016-06-08T09:16:35.958Z,550
2016-06-08T09:17:35.977Z,545
2016-06-08T09:18:35.932Z,555
2016-06-08T09:19:35.966Z,555
2016-06-08T09:20:35.766Z,565
2016-06-08T09:21:35.753Z,575
2016-06-08T09:22:35.927Z,580
2016-06-08T09:23:35.883Z,590
2016-06-08T09:24:35.713Z,590
2016-06-08T09:25:35.857Z,600
2016-06-08T09:26:35.688Z,595
2016-06-08T09:27:35.832Z,590
2016-06-08T09:28:35.756Z,585
2016-06-08T09:29:36.664Z,585
2016-06-08T09:30:35.949Z,575
2016-06-08T09:31:35.779Z,575
2016-06-08T09:32:35.782Z,570
2016-06-08T09:33:35.769Z,560
2016-06-08T09:34:35.756Z,555
2016-06-08T09:35:35.759Z,545
2016-06-08T09:36:35.574Z,535
2016-06-08T09:37:41.889Z,515
2016-06-08T09:38:35.720Z,505
2016-06-08T09:39:42.942Z,500
2016-06-08T09:40:42.414Z,495
2016-06-08T09:41:42.322Z,500
2016-06-08T09:42:42.434Z,485
2016-06-08T09:43:42.297Z,485
2016-06-08T09:44:42.847Z,485
2016-06-08T09:45:41.645Z,480
2016-06-08T09:46:35.617Z,485
2016-06-08T09:47:35.604Z,500
2016-06-08T09:48:35.591Z,485
2016-06-08T09:49:35.578Z,475
2016-06-08T09:50:35.565Z,475
2016-06-08T09:51:35.552Z,475
2016-06-08T09:52:35.538Z,485
2016-06-08T09:53:35.527Z,480
2016-06-08T09:54:35.513Z,475
2016-06-08T09:55:35.501Z,475
2016-06-08T09:56:35.471Z,475
2016-06-08T09:57:35.459Z,480
2016-06-08T09:58:35.446Z,465
2016-06-08T09:59:35.432Z,460
2016-06-08T10:00:35.279Z,460
2016-06-08T10:01:35.267Z,450
2016-06-08T10:02:35.395Z,450
2016-06-08T10:03:35.397Z,445
2016-06-08T10:04:35.384Z,440
2016-06-08T10:05:35.371Z,440
2016-06-08T10:06:35.359Z,440
2016-06-08T10:07:35.346Z,435
2016-06-08T10:08:35.316Z,425
2016-06-08T10:09:35.304Z,430
2016-06-08T10:10:35.291Z,435
2016-06-08T10:11:35.278Z,435
2016-06-08T10:12:35.109Z,435
2016-06-08T10:13:36.924Z,425
2016-06-08T10:14:36.302Z,430
2016-06-08T10:15:35.211Z,420
2016-06-08T10:16:35.198Z,420
2016-06-08T10:17:35.185Z,410
2016-06-08T10:18:35.015Z,415
2016-06-08T10:19:35.158Z,430
2016-06-08T10:20:35.161Z,425
2016-06-08T10:21:34.977Z,430
2016-06-08T10:22:34.979Z,440
2016-06-08T10:23:35.654Z,440
2016-06-08T10:24:35.093Z,445
2016-06-08T10:25:35.081Z,450
2016-06-08T10:26:35.318Z,450
2016-06-08T10:27:35.055Z,455
2016-06-08T10:28:35.058Z,450
2016-06-08T10:29:34.732Z,445
2016-06-08T10:30:35.016Z,450
2016-06-08T10:31:34.987Z,440
2016-06-08T10:32:34.991Z,440
2016-06-08T10:33:34.978Z,445
2016-06-08T10:34:34.949Z,440
2016-06-08T10:35:34.951Z,430
2016-06-08T10:36:34.923Z,425
2016-06-08T10:37:34.926Z,425
2016-06-08T10:38:34.898Z,420
2016-06-08T10:39:34.900Z,425
2016-06-08T10:40:34.872Z,410
2016-06-08T10:41:34.859Z,410
2016-06-08T10:42:34.845Z,410
2016-06-08T10:43:34.833Z,415
2016-06-08T10:44:34.976Z,410
2016-06-08T10:45:34.806Z,415
2016-06-08T10:46:34.809Z,420
2016-06-08T10:47:34.765Z,415
2016-06-08T10:48:34.768Z,420
2016-06-08T10:49:34.755Z,425
2016-06-08T10:50:34.742Z,425
2016-06-08T10:51:35.385Z,435
2016-06-08T10:52:34.716Z,435
2016-06-08T10:53:34.703Z,435
2016-06-08T10:54:36.441Z,440
2016-06-08T10:55:34.662Z,450
2016-06-08T10:56:34.648Z,445
2016-06-08T10:57:34.635Z,450
2016-06-08T10:58:34.623Z,445
2016-06-08T10:59:35.251Z,450
2016-06-08T11:00:35.566Z,445
2016-06-08T11:01:34.507Z,440
2016-06-08T11:02:34.712Z,445
2016-06-08T11:03:34.402Z,445
2016-06-08T11:04:34.373Z,445
2016-06-08T11:05:34.548Z,440
2016-06-08T11:06:34.535Z,440
2016-06-08T11:07:34.491Z,445
2016-06-08T11:08:34.478Z,440
2016-06-08T11:09:34.465Z,440
2016-06-08T11:10:34.452Z,440
2016-06-08T11:11:34.439Z,435
2016-06-08T11:12:34.426Z,445
2016-06-08T11:13:34.413Z,435
2016-06-08T11:14:34.306Z,435
2016-06-08T11:15:34.762Z,435
2016-06-08T11:16:34.389Z,435
2016-06-08T11:17:34.361Z,435
2016-06-08T11:18:34.333Z,435
2016-06-08T11:19:34.319Z,430
2016-06-08T11:20:34.308Z,430
2016-06-08T11:21:34.295Z,425
2016-06-08T11:22:34.280Z,430
2016-06-08T11:23:34.113Z,430
2016-06-08T11:24:34.271Z,420
2016-06-08T11:25:34.227Z,425
2016-06-08T11:26:34.230Z,425
2016-06-08T11:27:34.232Z,420
2016-06-08T11:28:34.185Z,420
2016-06-08T11:29:34.879Z,415
2016-06-08T11:30:34.004Z,420
2016-06-08T11:31:34.146Z,420
2016-06-08T11:32:34.149Z,420
2016-06-08T11:33:34.137Z,415
2016-06-08T11:34:33.951Z,415
2016-06-08T11:35:34.095Z,410
2016-06-08T11:36:34.082Z,410
2016-06-08T11:37:34.068Z,410
2016-06-08T11:38:34.056Z,405
2016-06-08T11:39:33.730Z,405
2016-06-08T11:40:34.030Z,400
2016-06-08T11:41:34.018Z,395
2016-06-08T11:42:34.036Z,395
2016-06-08T11:43:33.992Z,390
2016-06-08T11:44:33.837Z,390
2016-06-08T11:45:33.981Z,385
2016-06-08T11:46:33.609Z,380
2016-06-08T11:47:33.753Z,380
2016-06-08T11:48:33.911Z,375
2016-06-08T11:49:33.898Z,370
2016-06-08T11:50:34.416Z,370
2016-06-08T11:51:33.903Z,370
2016-06-08T11:52:33.875Z,365
2016-06-08T11:53:33.408Z,360
2016-06-08T11:54:33.677Z,355
2016-06-08T11:55:33.649Z,350
2016-06-08T11:56:33.791Z,345
2016-06-08T11:57:33.655Z,335
2016-06-08T11:58:35.643Z,330
2016-06-08T11:59:34.002Z,325
2016-06-08T12:00:40.899Z,325
2016-06-08T12:01:33.805Z,320
2016-06-08T12:02:33.401Z,315
2016-06-08T12:03:33.702Z,310
2016-06-08T12:04:33.673Z,305
2016-06-08T12:05:33.347Z,300
2016-06-08T12:06:44.790Z,290
2016-06-08T12:07:33.478Z,290
2016-06-08T12:08:33.606Z,285
2016-06-08T12:09:38.048Z,280
2016-06-08T12:10:33.579Z,275
2016-06-08T12:11:33.551Z,265
2016-06-08T12:12:34.023Z,260
2016-06-08T12:13:33.384Z,265
2016-06-08T12:14:33.356Z,260
2016-06-08T12:15:33.343Z,255
2016-06-08T12:16:33.517Z,255
2016-06-08T12:17:33.161Z,260
2016-06-08T12:18:33.289Z,250
2016-06-08T12:19:33.291Z,250
2016-06-08T12:20:33.419Z,250
2016-06-08T12:21:33.405Z,250
2016-06-08T12:22:33.236Z,250
2016-06-08T12:23:33.224Z,250
2016-06-08T12:24:33.055Z,250
2016-06-08T12:25:33.338Z,250
2016-06-08T12:26:33.185Z,250
2016-06-08T12:27:33.328Z,250
2016-06-08T12:28:33.300Z,250
2016-06-08T12:29:33.678Z,255
2016-06-08T12:30:33.946Z,255
2016-06-08T12:31:33.245Z,255
2016-06-08T12:32:33.233Z,255
2016-06-08T12:33:33.219Z,255
2016-06-08T12:34:33.207Z,250
2016-06-08T12:35:33.193Z,250
2016-06-08T12:36:33.165Z,240
2016-06-08T12:37:33.184Z,240
2016-06-08T12:38:33.139Z,235
2016-06-08T12:39:33.142Z,235
2016-06-08T12:40:33.113Z,225
2016-06-08T12:41:33.100Z,220
2016-06-08T12:42:33.087Z,220
2016-06-08T12:43:32.903Z,215
2016-06-08T12:44:33.499Z,215
2016-06-08T12:45:33.220Z,210
2016-06-08T12:46:33.020Z,210
2016-06-08T12:47:32.992Z,210
2016-06-08T12:48:32.978Z,210
2016-06-08T12:49:32.966Z,205
2016-06-08T12:50:32.969Z,205
2016-06-08T12:51:32.955Z,205
2016-06-08T12:52:32.927Z,200
2016-06-08T12:53:32.602Z,205
2016-06-08T12:54:32.885Z,200
2016-06-08T12:55:32.872Z,200
2016-06-08T12:56:32.891Z,200
2016-06-08T12:57:32.846Z,195
2016-06-08T12:58:32.819Z,195
2016-06-08T12:59:33.430Z,195
2016-06-08T13:00:32.652Z,190
2016-06-08T13:01:32.795Z,190
2016-06-08T13:02:32.610Z,190
2016-06-08T13:03:32.738Z,190
2016-06-08T13:04:32.756Z,190
2016-06-08T13:05:32.727Z,190
2016-06-08T13:06:32.699Z,185
2016-06-08T13:07:32.685Z,185
2016-06-08T13:08:32.688Z,185
2016-06-08T13:09:32.659Z,180
2016-06-08T13:10:32.647Z,180
2016-06-08T13:11:32.635Z,175
2016-06-08T13:12:32.621Z,175
2016-06-08T13:13:32.608Z,175
2016-06-08T13:14:34.079Z,170
2016-06-08T13:15:33.145Z,170
2016-06-08T13:16:32.554Z,165
2016-06-08T13:17:32.525Z,165
2016-06-08T13:18:32.512Z,165
2016-06-08T13:19:32.499Z,165
2016-06-08T13:20:32.486Z,165
2016-06-08T13:21:32.474Z,165
2016-06-08T13:22:32.461Z,165
2016-06-08T13:23:32.432Z,165
2016-06-08T13:24:32.435Z,165
2016-06-08T13:25:32.422Z,165
2016-06-08T13:26:32.425Z,165
2016-06-08T13:27:32.224Z,170
2016-06-08T13:28:32.352Z,175
2016-06-08T13:29:32.261Z,175
2016-06-08T13:30:32.122Z,180
2016-06-08T13:31:32.313Z,180
2016-06-08T13:32:32.285Z,180
2016-06-08T13:33:32.271Z,180
2016-06-08T13:34:32.274Z,180
2016-06-08T13:35:32.246Z,180
2016-06-08T13:36:32.077Z,180
2016-06-08T13:37:32.220Z,180
2016-06-08T13:38:32.190Z,180
2016-06-08T13:39:32.178Z,180
2016-06-08T13:40:31.869Z,180
2016-06-08T13:41:32.152Z,180
2016-06-08T13:42:32.140Z,185
2016-06-08T13:43:32.111Z,185
2016-06-08T13:44:32.504Z,190
2016-06-08T13:45:32.960Z,190
2016-06-08T13:46:32.057Z,190
2016-06-08T13:47:32.075Z,190
2016-06-08T13:48:32.046Z,185
2016-06-08T13:49:32.018Z,190
2016-06-08T13:50:32.005Z,185
2016-06-08T13:51:31.992Z,185
2016-06-08T13:52:31.978Z,180
2016-06-08T13:53:31.966Z,180
2016-06-08T13:54:31.937Z,190
2016-06-08T13:55:31.924Z,175
2016-06-08T13:56:31.772Z,175
2016-06-08T13:57:31.914Z,170